Kabul International Airport
OAKB : now visible

Airfield :











YOU CAN JOIN US ON...

 
LOGIN :

Register | Disclaimer

   EN    FR    IT 

 









Legend :    VFR   Marginal VFR   IFR   Intensive IFR   Very Intensive IFR
Visi :
Ceiling :
>= 8 km
>= 3000ft
5 to 8 km
1000 to 3000 ft
1500m to 5 km
500 to 1000 ft
800 to 1500m
200 to 500 ft
< 800m
< 200 ft
Symbols :   Thunderstorms  Fog  Heavy snow  Heavy precipitations  Wind > 20 kt






- Airport Elevation : 5877 ft
- IATA code : KBL


OAKB - Kabul International

CURRENT METAR :
  • 281450Z 34005KT 6000 NSC M01/M10 Q1015 NOSIG RMK A2996 WHT WHT

EXPIRED METARs :
  • 281350Z 32005KT 8000 NSC M01/M10 Q1014 NOSIG RMK A2995 BLU BLU
  • 281250Z 27006KT CAVOK 02/M11 Q1013 NOSIG RMK A2994 BLU BLU

TAF TAF OAKB
Valid from the 28 at 12:00 until the 29 at 12:00 UTC


281105Z 2812/2912 VRB02KT CAVOK
BECMG 2813/2814 5000 FU
TEMPO 2818/2821 3000
BECMG 2822/2823 7000 NSW
BECMG 2902/2903 SCT100
PROB30 2903/2906 4000 HZ



MET'MAP, your aeronautical weather chart ! - Copyright ORBIFLY December 2007 - Disclaimer

ORBIFLY MET'MAP TEAM :

Programming & Development : Alexandra Zaïnal
Concept & original design : Baudouin d'Aumeries
Assistance for programming : Marc-Olivier Méhu
Technical & hardware support : Manuel Goepfert

Contact : metmap@orbifly.com




SOURCES & CREDITS :

   NOAA       Earth
Advisory